F/V Canto Nuevo — EBVH — position and weather

sailwx.info

Track history (hours):
 
Tides and Currents Weather Stations Pressure Air Temp Water Temp Dewpoint Dewpoint Depression Visibility Wind Speed Wind Dir Waves Ship Positions

F/V Canto Nuevo

Last reported at 2017-Nov-17 12:26 UTC. Time now 2017-Nov-22 11:20 UTC.
Position N 45°13' W 003°03'.

Length 26 m; draft 25.5 m.

Type: Fishing. MMSI: 224045260.

Date/timePositionNaut miles runAvg speedWind from/ knotsBaromVisibWave heightAir tempDewpointWater temp
2017-Nov-17 12:26N 45°13' W 003°03'0 0.9
2017-Nov-17 12:00N 45°12' W 003°02'0 0.8
2017-Nov-17 11:28N 45°12' W 003°02'0 0.1
2017-Nov-17 08:51N 45°12' W 003°02'1 1.0
2017-Nov-17 08:06N 45°11' W 003°02'2 4.3
2017-Nov-17 07:36N 45°13' W 003°03'1 4.9
2017-Nov-17 07:29N 45°13' W 003°03'3 3.9
2017-Nov-17 06:50N 45°10' W 003°02'6 0.5
2017-Nov-16 18:48N 45°15' W 003°08'1 0.7
2017-Nov-16 16:59N 45°14' W 003°08'1 0.9
2017-Nov-16 16:20N 45°14' W 003°08'2 5.2
2017-Nov-16 15:56N 45°12' W 003°07'3 0.9
2017-Nov-16 12:11N 45°13' W 003°03'0 0.6
2017-Nov-16 12:00N 45°12' W 003°03'1 1.1
2017-Nov-16 11:18N 45°12' W 003°02'1 1.0
2017-Nov-16 10:28N 45°11' W 003°02'0 0.8
2017-Nov-16 10:00N 45°11' W 003°02'3 1.2
2017-Nov-16 07:40N 45°13' W 003°03'1 5.0
2017-Nov-16 07:30N 45°13' W 003°02'2 4.6
2017-Nov-16 06:59N 45°10' W 003°03'3 1.9
2017-Nov-16 05:30N 45°13' W 003°03'  
2017-Nov-08 05:32N 43°53' W 005°40'0 7.8
2017-Nov-08 05:29N 43°53' W 005°40'6 8.0
2017-Nov-08 04:45N 43°48' W 005°45'3 8.1
2017-Nov-08 04:26N 43°46' W 005°47'4 8.1
2017-Nov-08 03:58N 43°43' W 005°50'5 8.1
2017-Nov-08 03:25N 43°39' W 005°54'  
Track history (hours):
 
Tides and Currents Weather Stations Pressure Air Temp Water Temp Dewpoint Dewpoint Depression Visibility Wind Speed Wind Dir Waves Ship Positions

F/V Canto Nuevo

Last reported at 2017-Nov-17 12:26 UTC. Time now 2017-Nov-22 11:20 UTC.
Position N 45°13' W 003°03'.

Length 26 m; draft 25.5 m.

Type: Fishing. MMSI: 224045260.

Date/timePositionNaut miles runAvg speedWind from/ knotsBaromVisibWave heightAir tempDewpointWater temp
2017-Nov-17 12:26N 45°13' W 003°03'0 0.9
2017-Nov-17 12:00N 45°12' W 003°02'0 0.8
2017-Nov-17 11:28N 45°12' W 003°02'0 0.1
2017-Nov-17 08:51N 45°12' W 003°02'1 1.0
2017-Nov-17 08:06N 45°11' W 003°02'2 4.3
2017-Nov-17 07:36N 45°13' W 003°03'1 4.9
2017-Nov-17 07:29N 45°13' W 003°03'3 3.9
2017-Nov-17 06:50N 45°10' W 003°02'6 0.5
2017-Nov-16 18:48N 45°15' W 003°08'1 0.7
2017-Nov-16 16:59N 45°14' W 003°08'1 0.9
2017-Nov-16 16:20N 45°14' W 003°08'2 5.2
2017-Nov-16 15:56N 45°12' W 003°07'3 0.9
2017-Nov-16 12:11N 45°13' W 003°03'0 0.6
2017-Nov-16 12:00N 45°12' W 003°03'1 1.1
2017-Nov-16 11:18N 45°12' W 003°02'1 1.0
2017-Nov-16 10:28N 45°11' W 003°02'0 0.8
2017-Nov-16 10:00N 45°11' W 003°02'3 1.2
2017-Nov-16 07:40N 45°13' W 003°03'1 5.0
2017-Nov-16 07:30N 45°13' W 003°02'2 4.6
2017-Nov-16 06:59N 45°10' W 003°03'3 1.9
2017-Nov-16 05:30N 45°13' W 003°03'  
2017-Nov-08 05:32N 43°53' W 005°40'0 7.8
2017-Nov-08 05:29N 43°53' W 005°40'6 8.0
2017-Nov-08 04:45N 43°48' W 005°45'3 8.1
2017-Nov-08 04:26N 43°46' W 005°47'4 8.1
2017-Nov-08 03:58N 43°43' W 005°50'5 8.1
2017-Nov-08 03:25N 43°39' W 005°54'  

Dump ship's entire track history